Time;durP1;ratioP1;P1;durP2;ratioP2;P2;SDS_P1;SDS_P2;PMS_P1;PMS_P2;Temp;Humidity;BMP_temperature;BMP_pressure;BME280_temperature;BME280_humidity;BME280_pressure;Samples;Min_cycle;Max_cycle;Signal;HPM_P1;HPM_P2
2022/08/28 00:00:12;;;;;;;4.70;2.50;;;16.90;65.00;;;;;;6242544;23;20050;-68
2022/08/28 00:02:37;;;;;;;5.82;2.70;;;16.80;65.10;;;;;;6242286;23;20492;-69
2022/08/28 00:05:05;;;;;;;4.95;2.35;;;16.80;65.30;;;;;;6240552;23;20007;-68
2022/08/28 00:07:30;;;;;;;4.53;2.67;;;16.80;65.40;;;;;;6242176;23;20087;-70
2022/08/28 00:09:56;;;;;;;4.15;2.35;;;16.70;65.50;;;;;;6242217;23;20143;-69
2022/08/28 00:12:22;;;;;;;3.13;2.05;;;16.70;65.60;;;;;;6242896;23;20067;-69
2022/08/28 00:14:47;;;;;;;3.78;2.10;;;16.60;65.60;;;;;;6243297;23;20003;-68
2022/08/28 00:17:13;;;;;;;3.88;2.15;;;16.60;65.70;;;;;;6241024;23;20035;-70
2022/08/28 00:19:39;;;;;;;4.05;2.45;;;16.60;65.80;;;;;;6243353;23;20011;-70
2022/08/28 00:22:06;;;;;;;7.28;2.55;;;16.60;65.80;;;;;;6243647;23;20010;-69
2022/08/28 00:24:32;;;;;;;4.80;2.72;;;16.60;65.90;;;;;;6241961;23;20030;-69
2022/08/28 00:29:43;;;;;;;4.50;2.28;;;16.50;66.20;;;;;;6243175;23;20015;-69
2022/08/28 00:32:08;;;;;;;4.38;2.40;;;16.40;66.20;;;;;;6242865;23;20047;-69
2022/08/28 00:34:34;;;;;;;5.18;2.08;;;16.40;66.30;;;;;;6241764;23;20024;-69
2022/08/28 00:37:00;;;;;;;3.13;1.98;;;16.40;66.30;;;;;;6240702;23;19996;-69
2022/08/28 00:39:25;;;;;;;4.53;2.10;;;16.40;66.50;;;;;;6243259;23;20507;-70
2022/08/28 00:41:51;;;;;;;6.43;2.38;;;16.40;66.60;;;;;;6242702;23;20000;-69
2022/08/28 00:44:23;;;;;;;4.35;2.08;;;16.40;66.60;;;;;;6241505;23;20000;-70
2022/08/28 00:46:50;;;;;;;;;;;16.40;66.70;;;;;;6242897;23;20012;-70
2022/08/28 00:49:19;;;;;;;4.07;2.22;;;16.30;66.50;;;;;;6255347;23;19965;-69
2022/08/28 00:52:07;;;;;;;5.45;2.38;;;16.30;66.90;;;;;;6262212;22;20012;-69
2022/08/28 00:54:37;;;;;;;6.20;2.60;;;16.30;66.90;;;;;;6249806;23;20454;-69
2022/08/28 00:57:05;;;;;;;3.25;2.10;;;16.30;67.00;;;;;;6248686;23;20442;-69
2022/08/28 00:59:31;;;;;;;4.05;1.90;;;16.20;67.00;;;;;;6250500;23;20001;-69
2022/08/28 01:01:58;;;;;;;4.97;2.28;;;16.20;67.10;;;;;;6246677;23;20004;-69
2022/08/28 01:04:26;;;;;;;3.85;2.03;;;16.20;67.20;;;;;;6248380;23;20024;-70
2022/08/28 01:06:54;;;;;;;4.97;2.10;;;16.10;67.40;;;;;;6253005;23;20404;-69
2022/08/28 01:09:22;;;;;;;4.75;1.95;;;16.10;67.40;;;;;;6256133;23;20000;-68
2022/08/28 01:11:50;;;;;;;4.03;2.00;;;16.10;67.60;;;;;;6251629;23;20077;-68
2022/08/28 01:14:18;;;;;;;5.28;2.17;;;16.10;67.60;;;;;;6250472;23;20001;-68
2022/08/28 01:16:45;;;;;;;5.00;2.15;;;16.00;67.60;;;;;;6243060;23;20007;-68
2022/08/28 01:19:17;;;;;;;4.05;2.10;;;16.00;67.70;;;;;;6241170;23;20341;-69
2022/08/28 01:21:53;;;;;;;3.78;2.13;;;16.00;67.70;;;;;;6243394;23;20015;-68
2022/08/28 01:24:19;;;;;;;4.82;2.28;;;16.00;67.80;;;;;;6243558;23;20062;-68
2022/08/28 01:26:46;;;;;;;3.72;1.83;;;16.00;67.90;;;;;;6243326;23;20008;-69
2022/08/28 01:29:12;;;;;;;5.95;2.10;;;16.00;67.90;;;;;;6242659;23;20083;-68
2022/08/28 01:31:39;;;;;;;5.40;1.90;;;15.90;68.10;;;;;;6241559;23;20000;-69
2022/08/28 01:34:08;;;;;;;6.40;2.30;;;15.80;68.20;;;;;;6243343;23;19997;-69
2022/08/28 01:36:34;;;;;;;4.55;2.03;;;15.80;68.40;;;;;;6242587;23;20438;-68
2022/08/28 01:39:21;;;;;;;4.53;2.10;;;15.80;69.10;;;;;;6246984;23;20004;-68
2022/08/28 01:41:50;;;;;;;3.40;1.90;;;15.80;68.50;;;;;;6263831;23;20004;-69
2022/08/28 01:44:19;;;;;;;3.65;1.98;;;15.80;68.60;;;;;;6260735;23;20007;-69
2022/08/28 01:46:45;;;;;;;4.35;2.30;;;15.80;68.60;;;;;;6244667;23;20032;-69
2022/08/28 01:49:11;;;;;;;3.35;2.15;;;15.70;68.60;;;;;;6244007;23;20058;-70
2022/08/28 01:51:38;;;;;;;4.38;2.00;;;15.70;68.60;;;;;;6246972;23;20000;-68
2022/08/28 01:54:04;;;;;;;4.78;2.00;;;15.70;68.70;;;;;;6253930;23;20000;-70
2022/08/28 01:56:31;;;;;;;5.47;2.00;;;15.70;68.80;;;;;;6246579;23;20019;-68
2022/08/28 01:58:56;;;;;;;5.00;2.17;;;15.70;68.80;;;;;;6244582;23;20000;-67
2022/08/28 02:01:23;;;;;;;4.18;2.08;;;15.70;68.90;;;;;;6245644;23;20008;-69
2022/08/28 02:03:51;;;;;;;3.25;1.90;;;15.60;69.00;;;;;;6243680;23;20011;-69
2022/08/28 02:06:18;;;;;;;6.03;2.10;;;15.60;69.00;;;;;;6243103;23;20437;-70
2022/08/28 02:08:45;;;;;;;4.60;2.10;;;15.60;69.10;;;;;;6243286;23;20043;-70
2022/08/28 02:11:12;;;;;;;3.47;1.80;;;15.60;69.20;;;;;;6244426;23;20027;-69
2022/08/28 02:13:38;;;;;;;4.85;2.00;;;15.50;69.30;;;;;;6244060;23;20054;-70
2022/08/28 02:16:07;;;;;;;4.13;1.83;;;15.50;69.30;;;;;;6244687;22;20075;-70
2022/08/28 02:18:33;;;;;;;4.07;2.22;;;15.50;69.40;;;;;;6245777;23;20007;-70
2022/08/28 02:20:59;;;;;;;4.63;2.15;;;15.50;69.60;;;;;;6245995;23;20542;-69
2022/08/28 02:23:24;;;;;;;4.53;1.88;;;15.40;69.60;;;;;;6244220;23;20000;-69
2022/08/28 02:25:50;;;;;;;4.80;2.03;;;15.40;69.70;;;;;;6242803;23;20004;-69
2022/08/28 02:28:15;;;;;;;3.63;1.85;;;15.40;69.80;;;;;;6244236;23;20018;-68
2022/08/28 02:30:41;;;;;;;5.43;1.92;;;15.40;69.80;;;;;;6244559;23;20024;-68
2022/08/28 02:33:07;;;;;;;4.53;2.10;;;15.40;70.50;;;;;;6244595;23;19996;-69
2022/08/28 02:35:32;;;;;;;4.68;1.75;;;15.40;70.00;;;;;;6244318;23;20002;-69
2022/08/28 02:37:58;;;;;;;3.95;1.80;;;15.30;70.10;;;;;;6243248;23;20429;-69
2022/08/28 02:40:24;;;;;;;2.78;1.70;;;15.30;70.20;;;;;;6244361;23;20026;-70
2022/08/28 02:42:50;;;;;;;4.25;2.03;;;15.30;70.30;;;;;;6244653;23;20472;-68
2022/08/28 02:45:18;;;;;;;3.65;1.80;;;15.40;70.30;;;;;;6244729;23;20035;-69
2022/08/28 02:47:44;;;;;;;3.80;1.92;;;15.30;70.30;;;;;;6242618;23;20079;-69
2022/08/28 02:50:13;;;;;;;4.97;2.20;;;15.30;70.30;;;;;;6241543;23;20004;-68
2022/08/28 02:52:40;;;;;;;4.70;1.83;;;15.30;70.40;;;;;;6243107;23;20004;-68
2022/08/28 02:55:09;;;;;;;4.80;1.83;;;15.30;70.40;;;;;;6243576;23;20006;-68
2022/08/28 02:57:34;;;;;;;4.07;1.80;;;15.30;70.50;;;;;;6243644;23;20071;-68
2022/08/28 03:00:01;;;;;;;3.78;1.80;;;15.30;70.50;;;;;;6243369;23;20030;-69
2022/08/28 03:02:27;;;;;;;3.97;1.90;;;15.20;70.60;;;;;;6241881;23;20007;-68
2022/08/28 03:04:54;;;;;;;3.10;1.90;;;15.20;70.60;;;;;;6243758;23;20007;-68
2022/08/28 03:07:21;;;;;;;3.60;1.55;;;15.30;70.60;;;;;;6242670;23;20011;-68
2022/08/28 03:09:47;;;;;;;5.18;1.48;;;15.20;70.60;;;;;;6244174;23;20000;-68
2022/08/28 03:12:13;;;;;;;2.83;1.58;;;15.30;70.60;;;;;;6243956;23;20436;-68
2022/08/28 03:14:38;;;;;;;3.08;1.80;;;15.20;70.60;;;;;;6243341;23;20075;-69
2022/08/28 03:17:06;;;;;;;3.92;1.92;;;15.30;70.70;;;;;;6241261;23;20003;-69
2022/08/28 03:19:32;;;;;;;3.50;1.95;;;15.20;70.70;;;;;;6242059;23;20008;-68
2022/08/28 03:21:57;;;;;;;3.65;1.90;;;15.20;70.80;;;;;;6244209;23;20391;-68
2022/08/28 03:24:23;;;;;;;5.57;1.80;;;15.20;70.90;;;;;;6244645;23;20015;-68
2022/08/28 03:26:49;;;;;;;3.33;2.05;;;15.20;70.90;;;;;;6243774;23;20087;-69
2022/08/28 03:29:14;;;;;;;3.15;1.65;;;15.20;71.00;;;;;;6242796;23;20028;-69
2022/08/28 03:31:40;;;;;;;4.38;1.80;;;15.20;71.10;;;;;;6242280;23;20020;-69
2022/08/28 03:34:06;;;;;;;2.65;1.60;;;15.10;71.10;;;;;;6241363;23;20460;-69
2022/08/28 03:36:32;;;;;;;3.28;1.50;;;15.10;71.20;;;;;;6242841;23;19996;-70
2022/08/28 03:39:02;;;;;;;3.88;1.85;;;15.00;71.20;;;;;;6241202;23;20007;-70
2022/08/28 03:41:29;;;;;;;3.50;1.80;;;15.00;71.20;;;;;;6241066;23;20034;-69
2022/08/28 03:43:56;;;;;;;5.55;1.98;;;15.00;71.30;;;;;;6243363;23;20010;-69
2022/08/28 03:46:26;;;;;;;3.28;2.00;;;15.00;71.40;;;;;;6242661;23;20023;-69
2022/08/28 03:48:52;;;;;;;3.50;1.77;;;14.90;71.60;;;;;;6242456;23;20000;-69
2022/08/28 03:51:30;;;;;;;3.47;2.22;;;14.90;71.60;;;;;;6241254;23;20091;-69
2022/08/28 03:54:00;;;;;;;3.22;1.77;;;14.90;71.70;;;;;;6242531;23;20000;-69
2022/08/28 03:56:27;;;;;;;5.35;1.92;;;14.80;71.70;;;;;;6242615;23;20002;-70
2022/08/28 03:58:56;;;;;;;3.55;1.80;;;14.80;72.00;;;;;;6240902;23;20004;-69
2022/08/28 04:01:21;;;;;;;3.65;1.90;;;14.80;72.00;;;;;;6243077;23;20460;-68
2022/08/28 04:03:47;;;;;;;3.47;1.95;;;14.80;71.90;;;;;;6242760;23;20000;-68
2022/08/28 04:06:13;;;;;;;4.00;1.63;;;14.80;71.90;;;;;;6240839;23;20011;-68
2022/08/28 04:08:39;;;;;;;4.35;1.95;;;14.80;71.90;;;;;;6242743;23;20083;-68
2022/08/28 04:11:05;;;;;;;6.10;1.98;;;14.80;71.90;;;;;;6242574;23;20024;-67
2022/08/28 04:13:31;;;;;;;4.55;1.98;;;14.70;71.90;;;;;;6241640;23;20318;-67
2022/08/28 04:16:03;;;;;;;6.40;2.28;;;14.80;72.00;;;;;;6241298;23;20004;-68
2022/08/28 04:18:29;;;;;;;4.47;1.67;;;14.80;72.00;;;;;;6243280;23;20047;-68
2022/08/28 04:21:06;;;;;;;4.32;1.90;;;14.80;72.00;;;;;;6241202;23;20429;-68
2022/08/28 04:23:33;;;;;;;3.78;2.10;;;14.70;72.00;;;;;;6242081;23;20008;-67
2022/08/28 04:25:59;;;;;;;4.50;1.80;;;14.70;72.00;;;;;;6241663;23;20384;-69
2022/08/28 04:28:25;;;;;;;5.13;1.80;;;14.70;72.10;;;;;;6242204;23;20086;-69
2022/08/28 04:30:55;;;;;;;4.32;1.80;;;14.70;72.10;;;;;;6242374;23;19997;-69
2022/08/28 04:33:22;;;;;;;2.58;1.63;;;14.70;72.10;;;;;;6242224;23;19996;-69
2022/08/28 04:35:48;;;;;;;3.85;2.00;;;14.70;72.10;;;;;;6240844;23;20007;-70
2022/08/28 04:38:13;;;;;;;3.60;1.70;;;14.70;72.10;;;;;;6242367;23;19996;-70
2022/08/28 04:40:40;;;;;;;3.58;2.00;;;14.70;72.10;;;;;;6241781;23;20011;-70
2022/08/28 04:43:06;;;;;;;6.00;1.95;;;14.70;72.20;;;;;;6242253;23;20426;-69
2022/08/28 04:45:32;;;;;;;2.72;1.75;;;14.70;72.30;;;;;;6242393;23;20385;-70
2022/08/28 04:47:58;;;;;;;3.65;2.00;;;14.60;72.50;;;;;;6242713;23;20000;-69
2022/08/28 04:50:24;;;;;;;5.13;2.03;;;14.60;72.50;;;;;;6243258;23;20007;-71
2022/08/28 04:52:50;;;;;;;4.10;1.92;;;14.60;72.50;;;;;;6242383;23;20000;-70
2022/08/28 04:55:16;;;;;;;3.13;1.48;;;14.60;72.50;;;;;;6240565;23;20081;-69
2022/08/28 04:57:42;;;;;;;3.95;1.80;;;14.70;72.50;;;;;;6240955;23;20635;-70
2022/08/28 05:00:09;;;;;;;2.80;1.65;;;14.60;72.50;;;;;;6241244;23;20004;-70
2022/08/28 05:02:34;;;;;;;5.05;2.00;;;14.60;72.50;;;;;;6241824;23;20000;-70
2022/08/28 05:05:01;;;;;;;4.43;2.03;;;14.60;72.50;;;;;;6240500;23;20004;-69
2022/08/28 05:07:26;;;;;;;5.38;1.95;;;14.60;72.50;;;;;;6241148;23;20000;-68
2022/08/28 05:09:53;;;;;;;2.95;1.75;;;14.70;72.50;;;;;;6241902;23;20007;-69
2022/08/28 05:12:19;;;;;;;4.70;1.98;;;14.70;72.50;;;;;;6241880;23;20000;-69
2022/08/28 05:14:44;;;;;;;3.88;1.75;;;14.70;72.50;;;;;;6242097;23;20437;-69
2022/08/28 05:17:15;;;;;;;4.57;1.75;;;14.70;72.40;;;;;;6242140;23;20007;-69
2022/08/28 05:19:42;;;;;;;4.00;1.65;;;14.80;72.40;;;;;;6243480;23;20429;-69
2022/08/28 05:22:11;;;;;;;3.90;1.75;;;14.80;72.30;;;;;;6242599;23;20087;-69
2022/08/28 05:24:38;;;;;;;3.28;1.80;;;14.80;72.40;;;;;;6241920;23;20062;-68
2022/08/28 05:27:03;;;;;;;4.25;1.65;;;14.80;72.40;;;;;;6241648;23;20529;-69
2022/08/28 05:29:29;;;;;;;4.13;1.90;;;14.90;72.40;;;;;;6241739;23;20083;-69
2022/08/28 05:31:55;;;;;;;5.07;2.00;;;15.00;72.60;;;;;;6242090;23;20027;-69
2022/08/28 05:34:21;;;;;;;5.10;1.92;;;15.90;71.90;;;;;;6243201;23;20067;-69
2022/08/28 05:36:47;;;;;;;5.13;1.88;;;16.90;69.50;;;;;;6244067;23;20002;-69
2022/08/28 05:39:13;;;;;;;4.55;2.13;;;17.90;67.10;;;;;;6243641;23;20011;-69
2022/08/28 05:41:42;;;;;;;4.75;1.67;;;18.80;64.60;;;;;;6244118;23;20004;-68
2022/08/28 05:44:10;;;;;;;5.28;1.90;;;19.70;62.30;;;;;;6244163;23;20079;-68
2022/08/28 05:46:38;;;;;;;4.53;1.70;;;19.90;60.50;;;;;;6242788;23;20000;-68
2022/08/28 05:49:06;;;;;;;4.13;1.70;;;19.30;60.90;;;;;;6244021;23;20082;-68
2022/08/28 05:51:33;;;;;;;4.43;1.80;;;18.80;61.80;;;;;;6244172;23;20024;-68
2022/08/28 05:53:58;;;;;;;5.78;1.88;;;18.20;63.00;;;;;;6243848;23;20028;-68
2022/08/28 05:56:28;;;;;;;4.28;1.75;;;17.80;64.20;;;;;;6242967;23;20389;-68
2022/08/28 05:58:54;;;;;;;3.47;1.90;;;17.40;65.10;;;;;;6244192;23;20008;-71
2022/08/28 06:01:23;;;;;;;4.22;1.75;;;17.20;65.90;;;;;;6244179;23;20079;-69
2022/08/28 06:04:16;;;;;;;4.22;1.88;;;17.00;66.50;;;;;;6245583;23;20000;-70
2022/08/28 06:06:42;;;;;;;5.07;1.83;;;16.90;67.10;;;;;;6244446;23;20004;-71
2022/08/28 06:09:15;;;;;;;5.65;1.85;;;17.80;66.70;;;;;;6242308;23;20004;-70
2022/08/28 06:11:43;;;;;;;4.57;1.75;;;19.50;63.40;;;;;;6242058;23;19996;-69
2022/08/28 06:14:11;;;;;;;4.10;1.63;;;20.80;59.90;;;;;;6243955;23;20000;-68
2022/08/28 06:16:40;;;;;;;3.33;1.75;;;22.00;57.20;;;;;;6242240;23;20008;-70
2022/08/28 06:19:08;;;;;;;5.28;1.83;;;23.00;54.90;;;;;;6242947;23;20028;-69
2022/08/28 06:21:35;;;;;;;4.70;1.70;;;23.70;53.00;;;;;;6240169;23;20039;-70
2022/08/28 06:24:01;;;;;;;4.22;1.83;;;24.50;51.60;;;;;;6243987;23;20012;-70
2022/08/28 06:26:27;;;;;;;2.88;1.55;;;25.30;49.80;;;;;;6242224;23;20008;-71
2022/08/28 06:28:53;;;;;;;3.38;1.52;;;25.70;49.20;;;;;;6243676;23;20429;-70
2022/08/28 06:31:19;;;;;;;3.65;1.40;;;26.30;48.30;;;;;;6245270;23;20004;-69
2022/08/28 06:33:45;;;;;;;4.03;1.50;;;26.70;47.30;;;;;;6244833;23;20004;-70
2022/08/28 06:36:11;;;;;;;3.38;1.38;;;27.20;46.40;;;;;;6243765;23;19996;-70
2022/08/28 06:38:36;;;;;;;3.05;1.35;;;27.70;45.80;;;;;;6243419;23;20318;-70
2022/08/28 06:41:09;;;;;;;3.50;1.33;;;28.10;45.20;;;;;;6244168;22;20007;-69
2022/08/28 06:43:35;;;;;;;2.08;1.27;;;28.70;44.40;;;;;;6243605;23;20008;-69
2022/08/28 06:46:01;;;;;;;3.85;1.42;;;29.10;43.50;;;;;;6242912;23;20004;-69
2022/08/28 06:48:27;;;;;;;4.05;1.20;;;28.90;43.00;;;;;;6241407;23;20008;-68
2022/08/28 06:50:54;;;;;;;1.98;1.30;;;29.10;43.20;;;;;;6242164;23;20010;-68
2022/08/28 06:53:23;;;;;;;3.70;1.60;;;29.20;43.00;;;;;;6244069;23;20075;-69
2022/08/28 06:55:59;;;;;;;6.22;1.90;;;29.40;42.50;;;;;;6243315;23;20469;-69
2022/08/28 06:58:26;;;;;;;3.00;1.60;;;29.50;41.80;;;;;;6244071;23;19996;-69
2022/08/28 07:01:00;;;;;;;2.40;1.50;;;29.70;41.50;;;;;;6243417;23;20035;-69
2022/08/28 07:03:28;;;;;;;3.17;1.40;;;30.00;41.20;;;;;;6242197;23;20007;-68
2022/08/28 07:05:58;;;;;;;3.00;1.33;;;30.20;41.10;;;;;;6243292;23;20004;-69
2022/08/28 07:08:26;;;;;;;3.35;1.52;;;30.70;40.60;;;;;;6244385;23;20008;-68
2022/08/28 07:10:52;;;;;;;3.88;1.50;;;30.80;39.90;;;;;;6242985;23;20087;-68
2022/08/28 07:13:19;;;;;;;3.25;1.48;;;30.70;39.70;;;;;;6243717;23;20011;-69
2022/08/28 07:15:45;;;;;;;3.10;1.38;;;31.00;39.70;;;;;;6243275;23;19996;-69
2022/08/28 07:18:11;;;;;;;2.67;1.50;;;31.00;39.20;;;;;;6241428;23;20024;-68
2022/08/28 07:20:36;;;;;;;2.75;1.42;;;31.20;39.00;;;;;;6241701;23;20061;-69
2022/08/28 07:23:03;;;;;;;3.90;1.65;;;31.10;38.70;;;;;;6243142;23;20323;-68
2022/08/28 07:25:28;;;;;;;3.78;1.40;;;31.40;38.40;;;;;;6243689;23;20090;-68
2022/08/28 07:27:54;;;;;;;2.10;1.30;;;31.80;38.00;;;;;;6243137;23;20008;-68
2022/08/28 07:30:20;;;;;;;3.80;1.42;;;32.00;37.60;;;;;;6243453;23;20011;-68
2022/08/28 07:32:48;;;;;;;2.63;1.15;;;31.90;37.20;;;;;;6243686;23;20055;-68
2022/08/28 07:35:17;;;;;;;3.30;1.52;;;31.80;36.90;;;;;;6243187;23;20130;-67
2022/08/28 07:37:44;;;;;;;2.90;1.27;;;31.70;36.70;;;;;;6243316;23;20007;-68
2022/08/28 07:40:10;;;;;;;4.05;1.27;;;31.10;35.90;;;;;;6241284;23;20077;-68
2022/08/28 07:45:20;;;;;;;2.80;1.20;;;31.20;36.80;;;;;;6244588;23;20058;-67
2022/08/28 07:47:46;;;;;;;3.20;1.38;;;31.40;36.60;;;;;;6242712;23;20012;-67
2022/08/28 07:50:13;;;;;;;3.40;1.42;;;31.60;36.30;;;;;;6242648;23;20008;-68
2022/08/28 07:52:39;;;;;;;3.45;1.50;;;31.30;36.00;;;;;;6244051;23;20078;-68
2022/08/28 07:55:07;;;;;;;4.53;1.45;;;31.10;35.80;;;;;;6242895;23;20000;-68
2022/08/28 07:57:33;;;;;;;2.60;1.17;;;31.00;36.10;;;;;;6241776;23;20008;-68
2022/08/28 07:59:59;;;;;;;3.42;1.30;;;31.00;36.10;;;;;;6242414;23;20008;-68
2022/08/28 08:02:25;;;;;;;2.45;1.23;;;31.20;35.80;;;;;;6241851;23;20084;-68
2022/08/28 08:04:51;;;;;;;3.55;1.20;;;30.90;35.60;;;;;;6241979;23;20421;-68
2022/08/28 08:07:18;;;;;;;2.88;1.27;;;30.10;35.10;;;;;;6242034;23;20000;-68
2022/08/28 08:09:45;;;;;;;3.45;1.55;;;29.80;36.40;;;;;;6242275;23;20004;-68
2022/08/28 08:12:12;;;;;;;2.88;1.20;;;29.90;36.30;;;;;;6242142;23;19996;-68
2022/08/28 08:14:39;;;;;;;4.15;1.30;;;30.00;36.20;;;;;;6241852;23;20053;-68
2022/08/28 08:17:05;;;;;;;2.05;1.20;;;30.20;35.80;;;;;;6242450;23;20001;-68
2022/08/28 08:19:30;;;;;;;3.67;1.10;;;30.00;36.00;;;;;;6242278;23;20004;-68
2022/08/28 08:21:56;;;;;;;3.85;1.40;;;30.20;35.90;;;;;;6240866;23;20038;-68
2022/08/28 08:24:24;;;;;;;2.60;1.25;;;30.00;35.60;;;;;;6240025;23;20008;-68
2022/08/28 08:26:52;;;;;;;2.40;1.30;;;30.00;35.90;;;;;;6242530;23;20008;-68
2022/08/28 08:29:18;;;;;;;1.75;1.00;;;30.10;36.10;;;;;;6242546;23;20000;-68
2022/08/28 08:31:43;;;;;;;2.42;1.00;;;30.40;36.00;;;;;;6242725;23;20007;-68
2022/08/28 08:34:09;;;;;;;2.75;1.17;;;29.50;36.30;;;;;;6242202;23;20004;-68
2022/08/28 08:36:36;;;;;;;2.95;1.20;;;28.80;37.20;;;;;;6241768;23;20054;-68
2022/08/28 08:39:05;;;;;;;3.55;1.27;;;28.60;37.80;;;;;;6242306;23;20030;-68
2022/08/28 08:41:32;;;;;;;2.35;1.10;;;28.80;37.90;;;;;;6241678;23;20111;-68
2022/08/28 08:44:20;;;;;;;3.20;1.20;;;28.90;37.80;;;;;;6241644;23;20026;-69
2022/08/28 08:46:56;;;;;;;2.63;1.17;;;28.10;38.60;;;;;;6242369;23;20004;-67
2022/08/28 08:49:24;;;;;;;2.15;1.20;;;28.20;39.00;;;;;;6241248;23;20000;-67
2022/08/28 08:52:25;;;;;;;2.20;1.20;;;27.90;39.20;;;;;;6241703;23;19996;-68
2022/08/28 08:55:22;;;;;;;3.83;1.20;;;27.40;40.20;;;;;;6221653;23;20005;-68
2022/08/28 08:58:12;;;;;;;3.63;1.33;;;26.70;41.20;;;;;;6232516;23;20011;-69
2022/08/28 09:00:50;;;;;;;4.20;1.45;;;25.70;42.00;;;;;;6240393;23;20008;-69
2022/08/28 09:03:24;;;;;;;2.42;1.20;;;24.50;43.70;;;;;;6241393;23;20034;-69
2022/08/28 09:06:04;;;;;;;3.38;1.30;;;23.80;45.00;;;;;;6241501;23;20018;-69
2022/08/28 09:08:44;;;;;;;3.08;1.27;;;23.30;45.80;;;;;;6243543;23;20031;-68
2022/08/28 09:11:48;;;;;;;2.85;1.30;;;22.80;46.70;;;;;;6244568;23;20388;-68
2022/08/28 09:14:35;;;;;;;3.25;0.93;;;22.50;47.50;;;;;;6242118;23;20000;-68
2022/08/28 09:17:02;;;;;;;2.60;1.40;;;22.20;48.30;;;;;;6243589;23;20054;-68
2022/08/28 09:19:29;;;;;;;2.92;1.30;;;22.00;49.00;;;;;;6243998;23;20000;-68
2022/08/28 09:21:55;;;;;;;3.45;1.20;;;21.90;49.20;;;;;;6241820;23;20019;-68
2022/08/28 09:24:25;;;;;;;2.10;1.23;;;21.80;49.00;;;;;;6242879;23;20142;-69
2022/08/28 09:26:55;;;;;;;2.25;1.17;;;22.00;48.90;;;;;;6242151;23;20444;-69
2022/08/28 09:29:28;;;;;;;2.38;1.23;;;22.10;48.70;;;;;;6244069;23;20004;-69
2022/08/28 09:31:55;;;;;;;3.97;1.30;;;22.20;48.40;;;;;;6244486;23;20000;-69
2022/08/28 09:34:31;;;;;;;3.35;1.73;;;22.20;48.10;;;;;;6242699;23;20000;-69
2022/08/28 09:36:58;;;;;;;4.15;1.40;;;22.10;47.70;;;;;;6243685;23;20000;-69
2022/08/28 09:39:25;;;;;;;3.28;0.90;;;22.00;48.00;;;;;;6243810;23;20433;-69
2022/08/28 09:45:17;;;;;;;2.78;1.15;;;21.90;48.70;;;;;;6244386;23;20023;-69
2022/08/28 09:47:51;;;;;;;2.40;1.00;;;21.90;49.00;;;;;;6243601;23;20007;-69
2022/08/28 09:50:25;;;;;;;2.58;1.20;;;22.00;48.80;;;;;;6243642;23;20012;-69
2022/08/28 09:52:53;;;;;;;2.80;1.30;;;22.20;48.70;;;;;;6243443;23;20385;-69
2022/08/28 09:55:34;;;;;;;2.78;1.08;;;22.40;48.40;;;;;;6244008;22;20058;-69
2022/08/28 09:58:00;;;;;;;1.90;1.15;;;22.60;47.90;;;;;;6242309;23;20015;-69
2022/08/28 10:00:34;;;;;;;4.28;1.20;;;22.70;47.10;;;;;;6243319;23;20485;-69
2022/08/28 10:03:13;;;;;;;3.15;1.20;;;22.70;45.90;;;;;;6243882;23;20027;-69
2022/08/28 10:06:02;;;;;;;3.65;1.15;;;22.70;46.20;;;;;;6242650;23;20024;-69
2022/08/28 10:09:07;;;;;;;2.28;0.90;;;22.80;46.30;;;;;;6243352;23;20043;-69
2022/08/28 10:11:36;;;;;;;3.72;1.20;;;23.00;46.10;;;;;;6243757;23;20020;-69
2022/08/28 10:14:11;;;;;;;1.38;0.90;;;23.00;45.80;;;;;;6243497;23;20007;-69
2022/08/28 10:16:52;;;;;;;2.30;1.15;;;23.00;45.80;;;;;;6242679;23;20023;-69
2022/08/28 10:19:23;;;;;;;1.80;1.00;;;23.10;45.70;;;;;;6242902;23;20345;-69
2022/08/28 10:22:13;;;;;;;3.35;1.10;;;23.20;45.60;;;;;;6243792;23;20011;-69
2022/08/28 10:25:16;;;;;;;1.90;1.10;;;23.30;45.50;;;;;;6242870;23;20074;-69
2022/08/28 10:28:22;;;;;;;2.10;1.00;;;23.40;45.10;;;;;;6242767;23;20015;-69
2022/08/28 10:31:08;;;;;;;2.08;1.15;;;23.40;45.00;;;;;;6196838;22;20015;-69
2022/08/28 10:34:10;;;;;;;2.45;1.00;;;23.40;45.00;;;;;;6242305;23;20003;-69
2022/08/28 10:36:35;;;;;;;2.42;1.10;;;23.30;45.10;;;;;;6242925;23;20337;-69
2022/08/28 10:39:13;;;;;;;2.47;1.10;;;23.40;44.90;;;;;;6241641;23;20007;-69
2022/08/28 10:41:56;;;;;;;2.78;1.00;;;23.40;44.80;;;;;;6243707;23;20004;-69
2022/08/28 10:44:36;;;;;;;3.80;1.33;;;23.50;44.90;;;;;;6243595;23;20008;-69
2022/08/28 10:47:04;;;;;;;2.60;1.17;;;23.50;44.40;;;;;;6243486;23;20004;-70
2022/08/28 10:49:38;;;;;;;3.72;1.20;;;23.40;44.20;;;;;;6242540;23;20008;-70
2022/08/28 10:52:11;;;;;;;3.30;1.15;;;23.30;44.70;;;;;;6243396;23;20329;-70
2022/08/28 10:54:48;;;;;;;3.58;1.10;;;23.30;44.80;;;;;;6241595;23;20046;-70
2022/08/28 10:57:35;;;;;;;3.33;1.25;;;23.10;45.40;;;;;;6243950;23;20004;-69
2022/08/28 11:00:09;;;;;;;1.38;0.90;;;23.20;45.30;;;;;;6243703;23;20019;-70
2022/08/28 11:02:36;;;;;;;1.67;0.80;;;23.50;45.00;;;;;;6241965;23;20024;-70
2022/08/28 11:05:02;;;;;;;2.90;1.08;;;23.70;44.80;;;;;;6242683;23;20004;-69
2022/08/28 11:07:37;;;;;;;3.53;1.08;;;23.70;44.60;;;;;;6243640;23;20007;-70
2022/08/28 11:10:19;;;;;;;2.75;1.30;;;23.80;44.60;;;;;;6242702;23;20008;-70
2022/08/28 11:12:46;;;;;;;2.70;1.27;;;23.70;44.50;;;;;;6242544;23;20007;-68
2022/08/28 11:15:27;;;;;;;1.80;0.90;;;23.50;44.40;;;;;;6242645;23;20333;-68
2022/08/28 11:17:55;;;;;;;2.03;1.20;;;23.40;44.80;;;;;;6242452;23;20079;-69
2022/08/28 11:20:24;;;;;;;1.45;0.75;;;23.50;44.90;;;;;;6242648;23;20004;-69
2022/08/28 11:23:07;;;;;;;3.50;1.20;;;23.70;44.80;;;;;;6242778;23;20008;-68
2022/08/28 11:25:53;;;;;;;2.10;1.00;;;23.70;44.20;;;;;;6242433;23;20051;-69
2022/08/28 11:28:25;;;;;;;1.73;0.90;;;23.70;43.90;;;;;;6243124;23;20008;-69
2022/08/28 11:31:17;;;;;;;1.98;0.80;;;23.60;44.00;;;;;;6243354;23;20007;-69
2022/08/28 11:33:51;;;;;;;1.80;0.98;;;23.50;44.00;;;;;;6242510;23;20325;-69
2022/08/28 11:36:17;;;;;;;2.20;1.10;;;23.60;44.00;;;;;;6242573;23;20054;-69
2022/08/28 11:38:43;;;;;;;1.77;0.90;;;23.70;43.70;;;;;;6245279;23;20004;-69
2022/08/28 11:41:14;;;;;;;2.05;1.00;;;23.70;43.40;;;;;;6247451;23;20016;-69
2022/08/28 11:43:44;;;;;;;2.30;1.00;;;23.70;43.30;;;;;;6250701;23;20018;-69
2022/08/28 11:46:26;;;;;;;3.20;1.27;;;23.70;43.30;;;;;;6246905;23;20015;-69
2022/08/28 11:48:55;;;;;;;2.03;1.15;;;23.80;43.50;;;;;;6249803;23;20470;-69
2022/08/28 11:51:34;;;;;;;2.30;1.40;;;24.00;43.10;;;;;;6254082;23;19996;-69
2022/08/28 11:54:44;;;;;;;2.05;0.98;;;24.20;42.90;;;;;;6249661;23;20005;-69
2022/08/28 11:57:38;;;;;;;1.80;0.95;;;24.20;42.80;;;;;;6248926;23;20001;-69
2022/08/28 12:00:07;;;;;;;2.00;1.10;;;24.10;42.90;;;;;;6246256;23;20000;-69
2022/08/28 12:02:38;;;;;;;2.13;1.10;;;23.90;43.00;;;;;;6244774;23;20000;-69
2022/08/28 12:05:16;;;;;;;1.98;1.00;;;23.80;43.30;;;;;;6244861;23;20046;-69
2022/08/28 12:07:47;;;;;;;2.30;1.15;;;23.70;43.70;;;;;;6246817;23;20007;-69
2022/08/28 12:10:19;;;;;;;3.10;1.00;;;23.70;43.70;;;;;;6246486;23;20074;-69
2022/08/28 12:12:44;;;;;;;1.38;1.00;;;23.60;43.60;;;;;;6250241;23;19996;-69
2022/08/28 12:15:30;;;;;;;1.33;0.90;;;23.70;43.40;;;;;;6248970;23;20022;-69
2022/08/28 12:18:13;;;;;;;3.85;1.02;;;24.00;43.00;;;;;;6244139;23;19996;-69
2022/08/28 12:21:01;;;;;;;1.40;0.88;;;24.10;42.50;;;;;;6241200;23;20047;-69
2022/08/28 12:23:39;;;;;;;2.90;1.20;;;24.20;42.30;;;;;;6241054;23;20122;-69
2022/08/28 12:26:17;;;;;;;2.17;1.25;;;24.00;41.90;;;;;;6242310;23;20007;-69
2022/08/28 12:29:09;;;;;;;1.90;1.00;;;24.10;42.40;;;;;;6241812;23;20348;-70
2022/08/28 12:32:13;;;;;;;1.77;1.00;;;24.50;42.10;;;;;;6225835;23;20027;-69
2022/08/28 12:34:57;;;;;;;1.77;1.00;;;24.90;41.50;;;;;;6242326;23;20008;-70
2022/08/28 12:37:24;;;;;;;5.40;1.00;;;25.00;41.10;;;;;;6256125;23;20026;-69
2022/08/28 12:39:51;;;;;;;2.15;0.90;;;25.00;40.20;;;;;;6253021;23;20067;-69
2022/08/28 12:42:19;;;;;;;1.88;1.10;;;24.80;40.10;;;;;;6252883;23;20000;-68
2022/08/28 12:44:45;;;;;;;2.08;1.08;;;24.70;39.40;;;;;;6241997;23;20003;-68
2022/08/28 12:47:17;;;;;;;1.60;1.08;;;24.50;39.80;;;;;;6241904;23;20441;-68
2022/08/28 12:49:43;;;;;;;2.92;1.23;;;24.40;40.20;;;;;;6243678;23;20027;-68
2022/08/28 12:52:19;;;;;;;1.30;1.08;;;24.20;40.50;;;;;;6243899;23;20421;-68
2022/08/28 12:54:47;;;;;;;1.85;1.00;;;24.20;40.80;;;;;;6245053;23;20023;-68
2022/08/28 12:57:18;;;;;;;2.65;1.10;;;24.30;40.70;;;;;;6244253;22;20000;-68
2022/08/28 12:59:51;;;;;;;2.70;1.03;;;24.50;40.80;;;;;;6242977;23;20004;-68
2022/08/28 13:02:24;;;;;;;3.17;1.20;;;24.80;40.50;;;;;;6244794;23;20000;-69
2022/08/28 13:04:57;;;;;;;1.73;1.08;;;25.00;39.70;;;;;;6244345;23;20004;-69
2022/08/28 13:07:27;;;;;;;1.58;0.90;;;24.90;40.00;;;;;;6245332;23;20345;-68
2022/08/28 13:09:57;;;;;;;2.38;1.00;;;25.00;40.00;;;;;;6244895;23;20008;-69
2022/08/28 13:12:34;;;;;;;3.05;1.10;;;25.10;39.90;;;;;;6242775;23;20499;-69